createdAt,value
2024-01-16T00:01:29.538Z,98436.88
2024-01-16T00:03:57.637Z,98444.59
2024-01-16T00:06:26.851Z,98431.53
2024-01-16T00:08:54.657Z,98440.19
2024-01-16T00:11:23.013Z,98430.84
2024-01-16T00:13:50.790Z,98428.91
2024-01-16T00:16:18.441Z,98431.19
2024-01-16T00:18:46.822Z,98429.19
2024-01-16T00:21:14.511Z,98433.19
2024-01-16T00:23:43.698Z,98431.69
2024-01-16T00:26:21.532Z,98428.16
2024-01-16T00:28:49.265Z,98435.09
2024-01-16T00:31:16.972Z,98431.69
2024-01-16T00:33:45.153Z,98428.44
2024-01-16T00:36:12.887Z,98422.75
2024-01-16T00:38:40.722Z,98422.94
2024-01-16T00:41:10.678Z,98423.28
2024-01-16T00:43:38.899Z,98412.34
2024-01-16T00:46:07.395Z,98419.63
2024-01-16T00:48:35.495Z,98405.91
2024-01-16T00:51:03.255Z,98415.63
2024-01-16T00:53:31.257Z,98410.16
2024-01-16T00:55:59.000Z,98408.69
2024-01-16T00:58:28.198Z,98416.03
2024-01-16T01:00:56.718Z,98420.13
2024-01-16T01:03:24.438Z,98417.53
2024-01-16T01:05:52.211Z,98421.78
2024-01-16T01:08:20.670Z,98413.44
2024-01-16T01:10:48.747Z,98406.31
2024-01-16T01:13:16.448Z,98406.91
2024-01-16T01:15:45.628Z,98405.38
2024-01-16T01:18:14.060Z,98410.44
2024-01-16T01:20:42.025Z,98414.66
2024-01-16T01:23:11.055Z,98412.09
2024-01-16T01:25:39.296Z,98420.50
2024-01-16T01:28:07.174Z,98419.88
2024-01-16T01:30:35.117Z,98421.13
2024-01-16T01:33:05.121Z,98425.06
2024-01-16T01:35:32.467Z,98418.06
2024-01-16T01:38:00.164Z,98422.16
2024-01-16T01:40:28.438Z,98424.63
2024-01-16T01:42:56.132Z,98430.34
2024-01-16T01:45:23.662Z,98445.56
2024-01-16T01:47:52.019Z,98447.63
2024-01-16T01:50:21.334Z,98441.53
2024-01-16T01:52:49.042Z,98432.06
2024-01-16T01:55:17.313Z,98432.75
2024-01-16T01:57:45.053Z,98435.66
2024-01-16T02:00:13.946Z,98443.03
2024-01-16T02:02:44.054Z,98434.38
2024-01-16T02:05:11.978Z,98436.38
2024-01-16T02:07:41.235Z,98434.50
2024-01-16T02:10:10.350Z,98435.09
2024-01-16T02:12:38.153Z,98427.94
2024-01-16T02:15:06.659Z,98424.91
2024-01-16T02:17:34.684Z,98426.75
2024-01-16T02:20:02.412Z,98425.13
2024-01-16T02:22:33.002Z,98430.34
2024-01-16T02:25:02.597Z,98430.16
2024-01-16T02:27:30.163Z,98431.06
2024-01-16T02:29:58.020Z,98420.72
2024-01-16T02:32:26.094Z,98420.78
2024-01-16T02:34:53.762Z,98420.13
2024-01-16T02:37:21.703Z,98419.63
2024-01-16T02:39:49.712Z,98422.97
2024-01-16T02:42:18.821Z,98407.91
2024-01-16T02:44:46.566Z,98404.41
2024-01-16T02:47:14.595Z,98407.28
2024-01-16T02:49:42.228Z,98401.75
2024-01-16T02:52:10.151Z,98416.66
2024-01-16T02:54:38.112Z,98416.44
2024-01-16T02:57:05.975Z,98409.94
2024-01-16T02:59:35.076Z,98414.47
2024-01-16T03:02:03.551Z,98404.78
2024-01-16T03:04:31.320Z,98409.97
2024-01-16T03:06:58.876Z,98412.47
2024-01-16T03:09:26.627Z,98412.13
2024-01-16T03:11:54.370Z,98416.50
2024-01-16T03:14:22.054Z,98419.84
2024-01-16T03:16:51.460Z,98422.00
2024-01-16T03:19:19.208Z,98418.81
2024-01-16T03:21:46.841Z,98425.19
2024-01-16T03:24:14.886Z,98420.03
2024-01-16T03:26:42.584Z,98417.13
2024-01-16T03:29:10.621Z,98414.63
2024-01-16T03:31:39.204Z,98426.19
2024-01-16T03:34:08.421Z,98421.84
2024-01-16T03:36:36.047Z,98416.50
2024-01-16T03:39:04.268Z,98408.81
2024-01-16T03:41:31.897Z,98404.09
2024-01-16T03:43:59.519Z,98419.31
2024-01-16T03:46:27.803Z,98407.25
2024-01-16T03:48:55.542Z,98406.94
2024-01-16T03:51:24.563Z,98409.41
2024-01-16T03:53:52.869Z,98408.91
2024-01-16T03:56:20.508Z,98415.28
2024-01-16T03:58:48.409Z,98411.72
2024-01-16T04:01:16.323Z,98409.06
2024-01-16T04:03:44.002Z,98407.94
2024-01-16T04:06:18.247Z,98407.59
2024-01-16T04:08:47.505Z,98409.09
2024-01-16T04:11:15.612Z,98405.91
2024-01-16T04:13:43.733Z,98411.38
2024-01-16T04:16:13.933Z,98403.50
2024-01-16T04:18:45.201Z,98416.78
2024-01-16T04:21:13.274Z,98416.06
2024-01-16T04:23:42.479Z,98420.88
2024-01-16T04:26:11.967Z,98414.53
2024-01-16T04:28:39.655Z,98413.56
2024-01-16T04:31:07.532Z,98411.91
2024-01-16T04:33:36.137Z,98413.72
2024-01-16T04:36:04.193Z,98418.81
2024-01-16T04:38:31.865Z,98421.94
2024-01-16T04:41:03.030Z,98415.78
2024-01-16T04:43:32.413Z,98424.44
2024-01-16T04:46:02.661Z,98425.50
2024-01-16T04:48:32.110Z,98425.53
2024-01-16T04:50:59.931Z,98420.19
2024-01-16T04:53:27.510Z,98413.88
2024-01-16T04:55:55.501Z,98422.88
2024-01-16T04:58:23.132Z,98428.84
2024-01-16T05:00:52.288Z,98428.00
2024-01-16T05:03:20.086Z,98425.09
2024-01-16T05:05:48.333Z,98439.06
2024-01-16T05:08:16.205Z,98424.06
2024-01-16T05:10:45.738Z,98425.75
2024-01-16T05:13:13.640Z,98423.50
2024-01-16T05:15:42.158Z,98420.22
2024-01-16T05:18:11.674Z,98433.06
2024-01-16T05:20:39.467Z,98429.78
2024-01-16T05:23:07.071Z,98434.31
2024-01-16T05:25:35.330Z,98437.19
2024-01-16T05:28:03.075Z,98437.34
2024-01-16T05:30:30.788Z,98435.31
2024-01-16T05:32:58.858Z,98445.03
2024-01-16T05:35:28.057Z,98443.56
2024-01-16T05:37:55.798Z,98439.38
2024-01-16T05:40:24.083Z,98443.50
2024-01-16T05:42:52.215Z,98449.34
2024-01-16T05:45:19.990Z,98454.16
2024-01-16T05:47:48.003Z,98454.78
2024-01-16T05:50:15.990Z,98457.91
2024-01-16T05:52:47.150Z,98454.16
2024-01-16T05:55:15.796Z,98442.75
2024-01-16T05:57:43.437Z,98434.78
2024-01-16T06:00:12.088Z,98436.03
2024-01-16T06:02:40.642Z,98437.53
2024-01-16T06:05:08.782Z,98431.53
2024-01-16T06:07:36.371Z,98434.69
2024-01-16T06:10:07.203Z,98424.13
2024-01-16T06:12:36.005Z,98417.03
2024-01-16T06:15:03.744Z,98415.91
2024-01-16T06:17:32.020Z,98410.72
2024-01-16T06:19:59.943Z,98404.50
2024-01-16T06:22:27.586Z,98411.53
2024-01-16T06:24:56.763Z,98410.00
2024-01-16T06:27:26.243Z,98413.88
2024-01-16T06:29:53.763Z,98422.75
2024-01-16T06:32:21.715Z,98422.03
2024-01-16T06:34:49.429Z,98418.50
2024-01-16T06:37:17.045Z,98419.31
2024-01-16T06:39:45.169Z,98423.34
2024-01-16T06:42:12.935Z,98424.25
2024-01-16T06:44:42.047Z,98417.91
2024-01-16T06:47:10.112Z,98418.03
2024-01-16T06:49:37.907Z,98414.09
2024-01-16T06:52:05.709Z,98414.75
2024-01-16T06:54:33.477Z,98408.28
2024-01-16T06:57:01.101Z,98410.47
2024-01-16T06:59:29.174Z,98416.38
2024-01-16T07:01:58.271Z,98418.13
2024-01-16T07:04:25.974Z,98416.66
2024-01-16T07:06:53.862Z,98408.19
2024-01-16T07:09:21.718Z,98410.03
2024-01-16T07:11:49.362Z,98405.03
2024-01-16T07:14:17.402Z,98406.03
2024-01-16T07:16:45.431Z,98411.94
2024-01-16T07:19:14.749Z,98407.59
2024-01-16T07:21:42.735Z,98413.31
2024-01-16T07:24:10.732Z,98417.38
2024-01-16T07:26:38.519Z,98419.38
2024-01-16T07:29:06.579Z,98406.13
2024-01-16T07:31:34.540Z,98411.66
2024-01-16T07:34:02.322Z,98417.22
2024-01-16T07:36:32.278Z,98409.34
2024-01-16T07:39:00.067Z,98408.16
2024-01-16T07:41:27.786Z,98407.09
2024-01-16T07:43:55.750Z,98402.25
2024-01-16T07:46:23.697Z,98408.25
2024-01-16T07:48:51.481Z,98389.56
2024-01-16T07:51:19.306Z,98398.41
2024-01-16T07:53:48.703Z,98397.03
2024-01-16T07:56:16.466Z,98396.44
2024-01-16T07:58:44.927Z,98395.25
2024-01-16T08:01:13.186Z,98400.59
2024-01-16T08:03:41.226Z,98400.16
2024-01-16T08:06:09.767Z,98400.28
2024-01-16T08:08:38.201Z,98392.63
2024-01-16T08:11:07.472Z,98390.25
2024-01-16T08:13:35.537Z,98384.22
2024-01-16T08:16:03.781Z,98378.31
2024-01-16T08:18:31.658Z,98394.88
2024-01-16T08:20:59.496Z,98390.78
2024-01-16T08:23:27.726Z,98389.34
2024-01-16T08:25:55.479Z,98386.25
2024-01-16T08:28:24.978Z,98383.59
2024-01-16T08:30:53.311Z,98379.78
2024-01-16T08:33:27.931Z,98386.78
2024-01-16T08:36:02.306Z,98394.28
2024-01-16T08:38:30.311Z,98390.59
2024-01-16T08:40:58.355Z,98386.28
2024-01-16T08:43:27.957Z,98375.44
2024-01-16T08:45:55.715Z,98366.22
2024-01-16T08:48:23.683Z,98373.88
2024-01-16T08:50:51.920Z,98372.53
2024-01-16T08:53:19.742Z,98371.91
2024-01-16T08:55:47.482Z,98372.47
2024-01-16T08:58:16.240Z,98379.66
2024-01-16T09:00:45.774Z,98379.06
2024-01-16T09:03:13.844Z,98383.16
2024-01-16T09:05:41.986Z,98382.94
2024-01-16T09:08:11.822Z,98389.78
2024-01-16T09:10:41.733Z,98387.03
2024-01-16T09:13:09.407Z,98382.59
2024-01-16T09:15:37.406Z,98385.28
2024-01-16T09:18:07.346Z,98387.63
2024-01-16T09:20:37.364Z,98385.31
2024-01-16T09:23:05.222Z,98388.97
2024-01-16T09:25:33.535Z,98384.31
2024-01-16T09:28:01.319Z,98381.56
2024-01-16T09:30:29.174Z,98384.50
2024-01-16T09:32:57.955Z,98382.84
2024-01-16T09:35:27.237Z,98375.66
2024-01-16T09:37:54.939Z,98385.34
2024-01-16T09:40:26.068Z,98378.72
2024-01-16T09:42:54.032Z,98381.97
2024-01-16T09:45:22.389Z,98389.84
2024-01-16T09:47:52.640Z,98392.69
2024-01-16T09:50:21.417Z,98393.84
2024-01-16T09:52:50.654Z,98395.16
2024-01-16T09:55:18.952Z,98401.75
2024-01-16T09:57:47.715Z,98398.88
2024-01-16T10:00:16.516Z,98398.41
2024-01-16T10:02:44.817Z,98401.19
2024-01-16T10:05:13.843Z,98409.84
2024-01-16T10:07:43.339Z,98410.41
2024-01-16T10:10:13.567Z,98414.22
2024-01-16T10:12:41.780Z,98417.22
2024-01-16T10:15:10.300Z,98410.03
2024-01-16T10:17:39.795Z,98413.53
2024-01-16T10:20:09.021Z,98409.22
2024-01-16T10:22:36.817Z,98404.41
2024-01-16T10:25:08.842Z,98406.69
2024-01-16T10:27:38.846Z,98410.88
2024-01-16T10:30:08.331Z,98415.38
2024-01-16T10:32:37.991Z,98408.97
2024-01-16T10:35:07.986Z,98404.72
2024-01-16T10:37:46.130Z,98414.81
2024-01-16T10:40:17.357Z,98405.41
2024-01-16T10:42:47.007Z,98408.25
2024-01-16T10:45:20.744Z,98412.63
2024-01-16T10:47:49.093Z,98403.09
2024-01-16T10:50:17.199Z,98408.59
2024-01-16T10:52:48.892Z,98400.25
2024-01-16T10:55:21.617Z,98400.31
2024-01-16T10:57:52.587Z,98399.88
2024-01-16T11:00:22.049Z,98409.59
2024-01-16T11:02:56.025Z,98404.97
2024-01-16T11:05:27.106Z,98404.47
2024-01-16T11:07:57.320Z,98402.66
2024-01-16T11:10:25.598Z,98401.19
2024-01-16T11:12:56.981Z,98414.06
2024-01-16T11:15:26.643Z,98406.81
2024-01-16T11:17:55.185Z,98396.00
2024-01-16T11:20:38.743Z,98397.28
2024-01-16T11:23:14.696Z,98399.41
2024-01-16T11:25:42.403Z,98395.78
2024-01-16T11:28:13.136Z,98395.38
2024-01-16T11:30:42.562Z,98387.72
2024-01-16T11:33:43.557Z,98384.34
2024-01-16T11:36:44.876Z,98387.13
2024-01-16T11:39:19.128Z,98403.78
2024-01-16T11:41:51.241Z,98394.97
2024-01-16T11:44:42.542Z,98395.47
2024-01-16T11:47:11.275Z,98389.56
2024-01-16T11:49:39.377Z,98388.81
2024-01-16T11:52:07.536Z,98386.69
2024-01-16T11:54:35.815Z,98393.03
2024-01-16T11:57:27.424Z,98384.47
2024-01-16T12:00:04.075Z,98388.16
2024-01-16T12:02:53.718Z,98389.16
2024-01-16T12:05:22.592Z,98390.31
2024-01-16T12:07:51.238Z,98390.31
2024-01-16T12:10:20.118Z,98395.59
2024-01-16T12:12:49.674Z,98402.75
2024-01-16T12:15:20.961Z,98385.88
2024-01-16T12:17:56.520Z,98395.13
2024-01-16T12:20:25.713Z,98387.13
2024-01-16T12:22:58.013Z,98389.13
2024-01-16T12:25:59.354Z,98397.34
2024-01-16T12:28:19.176Z,98389.94
2024-01-16T12:30:53.112Z,98406.00
2024-01-16T12:33:24.215Z,98397.56
2024-01-16T12:36:01.535Z,98395.63
2024-01-16T12:38:30.448Z,98402.75
2024-01-16T12:40:59.502Z,98397.31
2024-01-16T12:43:27.202Z,98406.09
2024-01-16T12:45:59.665Z,98406.22
2024-01-16T12:48:28.201Z,98397.34
2024-01-16T12:51:00.808Z,98399.69
2024-01-16T12:53:28.855Z,98390.31
2024-01-16T12:55:59.837Z,98392.91
2024-01-16T12:58:34.313Z,98392.09
2024-01-16T13:01:33.849Z,98388.84
2024-01-16T13:04:07.104Z,98405.22
2024-01-16T13:06:35.450Z,98395.22
2024-01-16T13:09:07.906Z,98410.88
2024-01-16T13:11:46.704Z,98403.75
2024-01-16T13:14:14.974Z,98397.94
2024-01-16T13:16:44.291Z,98399.28
2024-01-16T13:19:12.103Z,98394.13
2024-01-16T13:21:40.099Z,98393.28
2024-01-16T13:24:08.811Z,98402.34
2024-01-16T13:26:37.306Z,98391.59
2024-01-16T13:29:05.393Z,98393.47
2024-01-16T13:31:33.538Z,98384.50
2024-01-16T13:34:03.120Z,98386.41
2024-01-16T13:39:01.843Z,98382.59
2024-01-16T13:41:29.652Z,98392.56
2024-01-16T13:43:58.036Z,98391.16
2024-01-16T13:46:37.039Z,98392.63
2024-01-16T13:49:15.855Z,98393.03
2024-01-16T13:51:45.758Z,98396.19
2024-01-16T13:54:14.310Z,98388.06
2024-01-16T13:56:58.459Z,98390.75
2024-01-16T13:59:32.728Z,98388.72
2024-01-16T14:02:00.944Z,98382.91
2024-01-16T14:04:30.238Z,98395.00
2024-01-16T14:07:10.942Z,98394.66
2024-01-16T14:09:43.504Z,98403.66
2024-01-16T14:12:12.581Z,98387.91
2024-01-16T14:14:42.368Z,98382.44
2024-01-16T14:17:11.014Z,98386.81
2024-01-16T14:19:40.261Z,98389.69
2024-01-16T14:22:08.529Z,98384.22
2024-01-16T14:24:37.900Z,98388.94
2024-01-16T14:27:05.881Z,98385.09
2024-01-16T14:29:33.704Z,98391.44
2024-01-16T14:32:01.843Z,98398.59
2024-01-16T14:34:29.507Z,98394.84
2024-01-16T14:36:58.926Z,98394.00
2024-01-16T14:39:27.734Z,98396.81
2024-01-16T14:41:56.108Z,98393.38
2024-01-16T14:44:24.086Z,98379.69
2024-01-16T14:46:53.726Z,98376.28
2024-01-16T14:49:21.733Z,98384.16
2024-01-16T14:51:49.659Z,98370.69
2024-01-16T14:54:20.057Z,98377.38
2024-01-16T14:56:48.003Z,98367.09
2024-01-16T14:59:16.539Z,98363.88
2024-01-16T15:01:45.729Z,98365.41
2024-01-16T15:04:13.979Z,98374.25
2024-01-16T15:06:42.236Z,98370.16
2024-01-16T15:09:10.800Z,98378.41
2024-01-16T15:11:40.310Z,98379.94
2024-01-16T15:14:08.119Z,98390.28
2024-01-16T15:16:36.503Z,98376.34
2024-01-16T15:19:04.411Z,98386.34
2024-01-16T15:21:32.580Z,98379.47
2024-01-16T15:24:00.940Z,98382.88
2024-01-16T15:26:28.720Z,98383.75
2024-01-16T15:28:58.159Z,98384.22
2024-01-16T15:31:26.159Z,98386.81
2024-01-16T15:33:53.889Z,98396.09
2024-01-16T15:36:22.504Z,98391.56
2024-01-16T15:38:50.294Z,98410.75
2024-01-16T15:41:18.195Z,98418.94
2024-01-16T15:43:45.960Z,98409.22
2024-01-16T15:46:15.372Z,98410.63
2024-01-16T15:48:43.140Z,98403.50
2024-01-16T15:51:11.331Z,98398.59
2024-01-16T15:53:39.427Z,98398.66
2024-01-16T15:56:07.271Z,98397.69
2024-01-16T15:58:35.256Z,98400.47
2024-01-16T16:01:03.590Z,98404.63
2024-01-16T16:03:33.212Z,98409.19
2024-01-16T16:06:00.982Z,98414.41
2024-01-16T16:08:28.936Z,98406.91
2024-01-16T16:10:57.289Z,98421.94
2024-01-16T16:13:25.244Z,98420.00
2024-01-16T16:15:53.206Z,98409.38
2024-01-16T16:18:21.077Z,98408.53
2024-01-16T16:20:50.429Z,98416.16
2024-01-16T16:23:18.637Z,98415.81
2024-01-16T16:25:47.971Z,98416.13
2024-01-16T16:28:15.852Z,98411.94
2024-01-16T16:30:43.699Z,98421.47
2024-01-16T16:33:11.631Z,98418.69
2024-01-16T16:35:39.742Z,98408.25
2024-01-16T16:38:09.403Z,98409.63
2024-01-16T16:40:38.149Z,98410.22
2024-01-16T16:43:06.310Z,98412.47
2024-01-16T16:45:34.395Z,98402.91
2024-01-16T16:48:02.275Z,98414.97
2024-01-16T16:50:30.402Z,98408.94
2024-01-16T16:52:58.461Z,98417.53
2024-01-16T16:55:27.807Z,98420.59
2024-01-16T16:57:55.869Z,98414.69
2024-01-16T17:00:24.077Z,98405.06
2024-01-16T17:02:52.224Z,98412.81
2024-01-16T17:05:20.386Z,98412.91
2024-01-16T17:07:48.985Z,98407.38
2024-01-16T17:10:16.985Z,98405.38
2024-01-16T17:12:46.588Z,98403.56
2024-01-16T17:15:15.004Z,98402.78
2024-01-16T17:17:42.940Z,98409.78
2024-01-16T17:20:12.436Z,98403.19
2024-01-16T17:22:40.873Z,98404.91
2024-01-16T17:25:09.323Z,98411.97
2024-01-16T17:27:37.934Z,98411.06
2024-01-16T17:30:09.922Z,98411.13
2024-01-16T17:32:37.714Z,98410.97
2024-01-16T17:35:06.370Z,98403.72
2024-01-16T17:37:35.015Z,98404.34
2024-01-16T17:40:02.968Z,98407.72
2024-01-16T17:42:31.075Z,98409.19
2024-01-16T17:44:59.220Z,98403.34
2024-01-16T17:47:28.709Z,98408.91
2024-01-16T17:49:56.529Z,98407.16
2024-01-16T17:52:24.887Z,98413.38
2024-01-16T17:54:52.711Z,98414.56
2024-01-16T17:57:20.623Z,98416.25
2024-01-16T17:59:49.444Z,98421.38
2024-01-16T18:02:17.264Z,98417.41
2024-01-16T18:04:46.471Z,98423.13
2024-01-16T18:07:14.675Z,98417.56
2024-01-16T18:09:44.467Z,98423.91
2024-01-16T18:12:13.471Z,98430.03
2024-01-16T18:14:41.337Z,98416.03
2024-01-16T18:17:09.637Z,98419.41
2024-01-16T18:19:37.589Z,98429.28
2024-01-16T18:22:07.285Z,98423.47
2024-01-16T18:24:35.109Z,98437.13
2024-01-16T18:27:02.861Z,98437.53
2024-01-16T18:29:31.355Z,98435.38
2024-01-16T18:31:59.751Z,98419.28
2024-01-16T18:34:27.487Z,98425.66
2024-01-16T18:36:55.655Z,98422.84
2024-01-16T18:39:25.146Z,98431.84
2024-01-16T18:41:53.103Z,98435.22
2024-01-16T18:44:21.177Z,98436.41
2024-01-16T18:46:49.160Z,98438.53
2024-01-16T18:49:17.407Z,98433.88
2024-01-16T18:51:46.132Z,98435.91
2024-01-16T18:54:13.974Z,98443.63
2024-01-16T18:56:43.245Z,98442.09
2024-01-16T18:59:11.347Z,98445.97
2024-01-16T19:01:39.317Z,98445.28
2024-01-16T19:04:07.097Z,98449.69
2024-01-16T19:06:35.430Z,98444.59
2024-01-16T19:09:03.692Z,98451.56
2024-01-16T19:11:31.608Z,98451.66
2024-01-16T19:14:01.158Z,98449.47
2024-01-16T19:16:29.416Z,98453.97
2024-01-16T19:18:57.601Z,98465.06
2024-01-16T19:21:25.516Z,98467.09
2024-01-16T19:23:53.315Z,98457.00
2024-01-16T19:26:21.317Z,98462.28
2024-01-16T19:28:49.127Z,98451.38
2024-01-16T19:31:18.948Z,98456.13
2024-01-16T19:33:47.100Z,98453.09
2024-01-16T19:36:15.285Z,98464.50
2024-01-16T19:38:43.050Z,98474.22
2024-01-16T19:41:11.159Z,98467.72
2024-01-16T19:43:39.138Z,98474.03
2024-01-16T19:46:06.927Z,98464.34
2024-01-16T19:48:36.714Z,98486.97
2024-01-16T19:51:05.279Z,98482.22
2024-01-16T19:53:33.286Z,98476.66
2024-01-16T19:56:01.103Z,98482.63
2024-01-16T19:58:29.099Z,98476.78
2024-01-16T20:00:57.601Z,98471.53
2024-01-16T20:03:25.587Z,98471.84
2024-01-16T20:05:55.190Z,98479.25
2024-01-16T20:08:22.998Z,98477.56
2024-01-16T20:10:51.652Z,98472.50
2024-01-16T20:13:19.629Z,98478.22
2024-01-16T20:15:48.005Z,98473.31
2024-01-16T20:18:16.190Z,98474.69
2024-01-16T20:20:44.834Z,98465.91
2024-01-16T20:23:14.213Z,98473.69
2024-01-16T20:25:41.876Z,98473.72
2024-01-16T20:28:09.787Z,98471.84
2024-01-16T20:30:37.630Z,98474.84
2024-01-16T20:33:05.758Z,98467.03
2024-01-16T20:35:34.033Z,98464.31
2024-01-16T20:38:01.878Z,98466.84
2024-01-16T20:40:30.921Z,98466.53
2024-01-16T20:42:59.093Z,98475.38
2024-01-16T20:45:26.868Z,98462.50
2024-01-16T20:47:54.813Z,98473.06
2024-01-16T20:50:23.024Z,98467.19
2024-01-16T20:52:51.214Z,98463.47
2024-01-16T20:55:18.965Z,98458.66
2024-01-16T20:57:49.050Z,98461.50
2024-01-16T21:00:17.871Z,98461.34
2024-01-16T21:02:45.726Z,98460.81
2024-01-16T21:05:13.973Z,98461.34
2024-01-16T21:07:42.172Z,98465.47
2024-01-16T21:10:10.873Z,98458.97
2024-01-16T21:12:38.737Z,98460.31
2024-01-16T21:15:09.196Z,98469.38
2024-01-16T21:17:37.461Z,98462.19
2024-01-16T21:20:07.325Z,98464.16
2024-01-16T21:22:37.028Z,98471.00
2024-01-16T21:25:06.658Z,98472.41
2024-01-16T21:27:35.320Z,98468.88
2024-01-16T21:30:03.826Z,98468.72
2024-01-16T21:32:33.976Z,98478.06
2024-01-16T21:35:01.841Z,98481.00
2024-01-16T21:37:29.512Z,98475.03
2024-01-16T21:39:57.238Z,98479.47
2024-01-16T21:42:25.267Z,98487.00
2024-01-16T21:44:53.263Z,98484.25
2024-01-16T21:47:21.220Z,98488.75
2024-01-16T21:49:52.711Z,98493.72
2024-01-16T21:52:21.519Z,98489.81
2024-01-16T21:54:49.178Z,98494.88
2024-01-16T21:57:17.214Z,98501.03
2024-01-16T21:59:45.204Z,98504.09
2024-01-16T22:02:12.968Z,98493.59
2024-01-16T22:04:41.064Z,98493.69
2024-01-16T22:07:10.294Z,98498.41
2024-01-16T22:09:39.090Z,98492.22
2024-01-16T22:12:09.047Z,98489.44
2024-01-16T22:14:36.378Z,98492.22
2024-01-16T22:17:04.853Z,98495.84
2024-01-16T22:19:32.919Z,98481.41
2024-01-16T22:22:00.606Z,98481.06
2024-01-16T22:24:30.093Z,98480.50
2024-01-16T22:26:58.020Z,98487.38
2024-01-16T22:29:25.779Z,98484.34
2024-01-16T22:31:53.759Z,98490.25
2024-01-16T22:34:22.549Z,98491.06
2024-01-16T22:36:50.254Z,98492.66
2024-01-16T22:39:18.386Z,98494.34
2024-01-16T22:41:49.269Z,98497.66
2024-01-16T22:44:18.081Z,98492.47
2024-01-16T22:46:45.890Z,98497.91
2024-01-16T22:49:14.020Z,98499.16
2024-01-16T22:51:41.772Z,98491.63
2024-01-16T22:54:09.540Z,98485.28
2024-01-16T22:56:37.641Z,98495.03
2024-01-16T22:59:06.995Z,98494.97
2024-01-16T23:01:37.206Z,98514.41
2024-01-16T23:04:06.070Z,98505.69
2024-01-16T23:06:34.192Z,98501.47
2024-01-16T23:09:01.888Z,98509.84
2024-01-16T23:11:29.828Z,98509.84
2024-01-16T23:13:57.874Z,98505.75
2024-01-16T23:16:27.129Z,98518.38
2024-01-16T23:18:55.127Z,98519.91
2024-01-16T23:21:23.108Z,98522.03
2024-01-16T23:23:50.968Z,98514.97
2024-01-16T23:26:19.011Z,98512.13
2024-01-16T23:28:47.180Z,98505.88
2024-01-16T23:31:14.904Z,98509.00
2024-01-16T23:33:44.485Z,98498.59
2024-01-16T23:36:12.311Z,98494.28
2024-01-16T23:38:39.967Z,98500.03
2024-01-16T23:41:08.763Z,98503.66
2024-01-16T23:43:37.511Z,98511.41
2024-01-16T23:46:05.468Z,98518.59
2024-01-16T23:48:34.366Z,98516.78
2024-01-16T23:51:04.582Z,98519.38
2024-01-16T23:53:32.353Z,98509.38
2024-01-16T23:56:00.349Z,98511.63
2024-01-16T23:58:30.017Z,98500.47
